createdAt,value
2023-03-19T00:02:21.375Z,9.32
2023-03-19T00:07:22.776Z,7.03
2023-03-19T00:12:24.144Z,8.60
2023-03-19T00:17:25.661Z,8.95
2023-03-19T00:22:27.021Z,7.05
2023-03-19T00:27:28.415Z,7.70
2023-03-19T00:32:30.041Z,7.72
2023-03-19T00:37:31.613Z,10.18
2023-03-19T00:42:33.162Z,5.70
2023-03-19T00:47:34.608Z,7.30
2023-03-19T00:52:35.943Z,7.32
2023-03-19T00:57:37.288Z,7.78
2023-03-19T01:02:38.630Z,9.25
2023-03-19T01:07:40.293Z,10.15
2023-03-19T01:12:41.786Z,10.90
2023-03-19T01:17:43.430Z,9.65
2023-03-19T01:22:45.949Z,8.02
2023-03-19T01:27:47.456Z,10.35
2023-03-19T01:32:49.198Z,9.10
2023-03-19T01:37:51.003Z,8.40
2023-03-19T01:42:55.097Z,8.98
2023-03-19T01:47:56.522Z,5.55
2023-03-19T01:52:57.934Z,7.70
2023-03-19T01:57:59.343Z,9.07
2023-03-19T02:03:02.114Z,6.40
2023-03-19T02:08:07.297Z,10.70
2023-03-19T02:13:08.743Z,8.90
2023-03-19T02:18:10.613Z,6.22
2023-03-19T02:23:30.271Z,10.38
2023-03-19T02:28:33.467Z,9.52
2023-03-19T02:33:35.303Z,10.32
2023-03-19T02:38:38.909Z,8.90
2023-03-19T02:43:41.907Z,6.85
2023-03-19T02:48:43.807Z,9.90
2023-03-19T02:53:46.020Z,9.00
2023-03-19T02:58:47.680Z,9.02
2023-03-19T03:03:49.670Z,10.73
2023-03-19T03:08:52.067Z,11.63
2023-03-19T03:13:53.407Z,12.77
2023-03-19T03:18:54.744Z,10.75
2023-03-19T03:23:56.318Z,12.30
2023-03-19T03:28:57.690Z,9.27
2023-03-19T03:33:59.070Z,8.75
2023-03-19T03:39:00.431Z,10.32
2023-03-19T03:44:01.808Z,10.25
2023-03-19T03:49:03.273Z,12.30
2023-03-19T03:54:04.653Z,11.75
2023-03-19T03:59:06.108Z,10.80
2023-03-19T04:04:07.551Z,8.10
2023-03-19T04:09:09.089Z,15.95
2023-03-19T04:14:10.605Z,9.10
2023-03-19T04:19:11.945Z,9.60
2023-03-19T04:24:14.166Z,9.88
2023-03-19T04:29:16.592Z,15.63
2023-03-19T04:34:18.008Z,11.65
2023-03-19T04:39:19.589Z,8.02
2023-03-19T04:44:21.781Z,13.40
2023-03-19T04:49:24.499Z,10.60
2023-03-19T04:54:25.995Z,11.25
2023-03-19T04:59:27.441Z,13.48
2023-03-19T05:04:28.880Z,10.25
2023-03-19T05:09:30.849Z,12.60
2023-03-19T05:14:32.502Z,11.63
2023-03-19T05:19:34.032Z,13.98
2023-03-19T05:24:36.133Z,13.93
2023-03-19T05:29:40.734Z,9.30
2023-03-19T05:34:42.331Z,13.25
2023-03-19T05:39:43.810Z,9.48
2023-03-19T05:44:45.262Z,11.43
2023-03-19T05:49:47.253Z,19.52
2023-03-19T05:54:50.564Z,15.60
2023-03-19T05:59:52.569Z,14.65
2023-03-19T06:04:54.209Z,10.35
2023-03-19T06:09:55.858Z,13.00
2023-03-19T06:14:57.293Z,14.63
2023-03-19T06:20:01.218Z,10.98
2023-03-19T06:25:02.667Z,9.93
2023-03-19T06:30:05.108Z,14.45
2023-03-19T06:35:06.748Z,12.38
2023-03-19T06:40:08.699Z,11.50
2023-03-19T06:45:10.563Z,14.07
2023-03-19T06:50:12.336Z,15.50
2023-03-19T06:55:14.115Z,9.27
2023-03-19T07:00:16.640Z,9.40
2023-03-19T07:05:18.099Z,9.98
2023-03-19T07:10:21.972Z,8.65
2023-03-19T07:15:23.364Z,8.88
2023-03-19T07:20:24.850Z,15.05
2023-03-19T07:25:26.515Z,9.05
2023-03-19T07:30:27.985Z,13.90
2023-03-19T07:35:29.459Z,8.52
2023-03-19T07:40:31.428Z,13.00
2023-03-19T07:45:32.972Z,7.70
2023-03-19T07:50:35.270Z,12.05
2023-03-19T07:55:38.458Z,10.80
2023-03-19T08:00:39.920Z,7.80
2023-03-19T08:05:41.893Z,10.73
2023-03-19T08:10:43.873Z,12.70
2023-03-19T08:15:45.427Z,11.63
2023-03-19T08:20:46.889Z,11.02
2023-03-19T08:25:51.631Z,8.25
2023-03-19T08:30:53.135Z,10.50
2023-03-19T08:36:03.571Z,7.85
2023-03-19T08:41:06.233Z,9.45
2023-03-19T08:46:07.679Z,8.60
2023-03-19T08:51:09.918Z,7.45
2023-03-19T08:56:11.307Z,6.38
2023-03-19T09:01:14.475Z,11.40
2023-03-19T09:06:15.983Z,9.77
2023-03-19T09:11:18.061Z,9.10
2023-03-19T09:16:19.769Z,9.32
2023-03-19T09:21:21.506Z,7.85
2023-03-19T09:26:22.930Z,7.65
2023-03-19T09:31:24.760Z,7.55
2023-03-19T09:36:26.584Z,4.35
2023-03-19T09:41:31.336Z,5.97
2023-03-19T09:46:43.221Z,2.92
2023-03-19T09:51:50.248Z,6.53
2023-03-19T09:56:52.337Z,7.75
2023-03-19T10:02:00.959Z,3.95
2023-03-19T10:07:12.875Z,4.78
2023-03-19T10:12:26.159Z,3.40
2023-03-19T10:17:33.177Z,4.45
2023-03-19T10:27:47.235Z,6.40
2023-03-19T10:32:55.086Z,2.30
2023-03-19T10:37:56.521Z,2.13
2023-03-19T10:43:17.697Z,4.72
2023-03-19T10:48:19.678Z,4.05
2023-03-19T10:53:39.954Z,3.47
2023-03-19T10:58:41.791Z,2.38
2023-03-19T11:03:57.477Z,3.05
2023-03-19T11:09:08.135Z,1.85
2023-03-19T11:14:18.260Z,4.72
2023-03-19T11:19:29.476Z,4.18
2023-03-19T11:24:37.609Z,4.15
2023-03-19T11:29:43.908Z,2.47
2023-03-19T11:34:49.195Z,2.17
2023-03-19T11:39:54.044Z,6.82
2023-03-19T11:45:22.965Z,5.20
2023-03-19T11:51:08.880Z,3.08
2023-03-19T11:56:35.096Z,2.92
2023-03-19T12:01:54.768Z,1.98
2023-03-19T12:07:21.155Z,3.88
2023-03-19T12:12:29.983Z,5.15
2023-03-19T12:17:38.948Z,2.13
2023-03-19T12:22:45.331Z,4.82
2023-03-19T12:28:19.038Z,3.00
2023-03-19T12:33:38.707Z,3.20
2023-03-19T12:38:48.191Z,4.38
2023-03-19T12:43:59.358Z,4.80
2023-03-19T12:49:24.308Z,4.90
2023-03-19T12:54:31.427Z,2.47
2023-03-19T12:59:36.476Z,5.32
2023-03-19T13:04:53.329Z,3.10
2023-03-19T13:10:09.217Z,3.95
2023-03-19T13:15:27.683Z,1.85
2023-03-19T13:20:49.014Z,1.52
2023-03-19T13:25:52.856Z,1.63
2023-03-19T13:31:06.159Z,1.42
2023-03-19T13:36:14.573Z,1.75
2023-03-19T13:41:34.868Z,0.40
2023-03-19T13:46:38.452Z,1.85
2023-03-19T13:51:39.928Z,0.65
2023-03-19T13:57:12.830Z,0.55
2023-03-19T14:02:23.880Z,1.55
2023-03-19T14:07:28.816Z,1.35
2023-03-19T14:12:34.183Z,3.20
2023-03-19T14:17:53.880Z,0.80
2023-03-19T14:23:23.311Z,1.60
2023-03-19T14:28:38.826Z,0.70
2023-03-19T14:33:55.824Z,0.75
2023-03-19T14:39:00.565Z,0.40
2023-03-19T14:44:35.479Z,0.88
2023-03-19T14:50:15.949Z,0.30
2023-03-19T14:55:17.756Z,1.73
2023-03-19T15:00:20.465Z,1.55
2023-03-19T15:05:26.235Z,0.70
2023-03-19T15:10:30.766Z,1.50
2023-03-19T15:15:39.528Z,1.27
2023-03-19T15:20:47.360Z,2.13
2023-03-19T15:25:57.575Z,0.50
2023-03-19T15:31:14.430Z,4.70
2023-03-19T15:36:33.246Z,2.95
2023-03-19T15:41:41.210Z,0.70
2023-03-19T15:46:44.509Z,0.20
2023-03-19T15:51:51.637Z,0.73
2023-03-19T15:56:53.641Z,1.58
2023-03-19T16:01:59.528Z,0.63
2023-03-19T16:07:01.364Z,0.20
2023-03-19T16:12:02.767Z,1.65
2023-03-19T16:17:13.034Z,0.30
2023-03-19T16:22:17.574Z,0.28
2023-03-19T16:27:22.485Z,1.55
2023-03-19T16:32:26.081Z,0.30
2023-03-19T16:37:33.796Z,0.63
2023-03-19T16:42:35.239Z,0.22
2023-03-19T16:47:36.764Z,0.65
2023-03-19T16:52:39.622Z,1.13
2023-03-19T16:57:41.318Z,0.75
2023-03-19T17:02:42.659Z,0.65
2023-03-19T17:07:44.376Z,2.28
2023-03-19T17:12:48.892Z,1.70
2023-03-19T17:17:51.009Z,0.82
2023-03-19T17:22:52.373Z,0.70
2023-03-19T17:27:53.956Z,1.10
2023-03-19T17:32:57.045Z,1.98
2023-03-19T17:37:58.392Z,2.08
2023-03-19T17:42:59.908Z,2.65
2023-03-19T17:48:01.311Z,1.10
2023-03-19T17:53:02.709Z,2.47
2023-03-19T17:58:04.158Z,1.25
2023-03-19T18:03:05.680Z,2.75
2023-03-19T18:08:07.067Z,2.38
2023-03-19T18:13:09.384Z,3.47
2023-03-19T18:18:20.964Z,3.97
2023-03-19T18:23:24.005Z,2.78
2023-03-19T18:28:25.526Z,3.60
2023-03-19T18:33:30.151Z,6.00
2023-03-19T18:38:31.543Z,4.40
2023-03-19T18:43:32.874Z,5.75
2023-03-19T18:48:34.229Z,2.67
2023-03-19T18:53:35.694Z,4.40
2023-03-19T18:58:38.730Z,5.05
2023-03-19T19:03:40.218Z,5.40
2023-03-19T19:08:41.550Z,5.90
2023-03-19T19:13:55.663Z,6.15
2023-03-19T19:18:58.163Z,6.88
2023-03-19T19:23:59.548Z,8.30
2023-03-19T19:29:01.239Z,10.13
2023-03-19T19:34:02.801Z,6.63
2023-03-19T19:39:04.279Z,6.55
2023-03-19T19:44:06.666Z,7.50
2023-03-19T19:49:12.742Z,9.90
2023-03-19T19:54:14.128Z,7.10
2023-03-19T19:59:15.826Z,8.98
2023-03-19T20:04:17.328Z,9.38
2023-03-19T20:09:18.700Z,7.43
2023-03-19T20:14:20.337Z,7.72
2023-03-19T20:19:21.797Z,8.23
2023-03-19T20:24:23.196Z,6.25
2023-03-19T20:29:24.542Z,9.43
2023-03-19T20:34:38.780Z,10.55
2023-03-19T20:39:40.923Z,8.73
2023-03-19T20:44:43.388Z,5.95
2023-03-19T20:49:45.599Z,4.13
2023-03-19T20:54:48.023Z,8.77
2023-03-19T20:59:49.664Z,5.80
2023-03-19T21:04:51.615Z,7.07
2023-03-19T21:09:53.007Z,4.35
2023-03-19T21:14:54.706Z,3.25
2023-03-19T21:19:56.636Z,5.13
2023-03-19T21:25:07.796Z,4.65
2023-03-19T21:30:14.697Z,4.28
2023-03-19T21:35:24.261Z,6.75
2023-03-19T21:40:29.821Z,7.03
2023-03-19T21:45:33.911Z,6.85
2023-03-19T21:50:35.656Z,6.15
2023-03-19T21:55:37.232Z,3.85
2023-03-19T22:00:39.122Z,5.20
2023-03-19T22:05:40.644Z,4.15
2023-03-19T22:10:42.752Z,5.35
2023-03-19T22:15:44.102Z,11.73
2023-03-19T22:20:46.928Z,6.63
2023-03-19T22:25:50.775Z,7.07
2023-03-19T22:30:52.442Z,6.63
2023-03-19T22:35:53.931Z,7.38
2023-03-19T22:40:56.262Z,5.10
2023-03-19T22:46:02.280Z,6.53
2023-03-19T22:51:04.742Z,7.97
2023-03-19T22:56:06.329Z,4.60
2023-03-19T23:01:28.941Z,6.82
2023-03-19T23:06:31.132Z,6.25
2023-03-19T23:11:32.523Z,6.15
2023-03-19T23:16:34.205Z,5.00
2023-03-19T23:21:35.542Z,5.28
2023-03-19T23:26:37.339Z,6.60
2023-03-19T23:31:38.686Z,5.82
2023-03-19T23:36:41.810Z,7.18
2023-03-19T23:41:53.524Z,6.85
2023-03-19T23:46:57.840Z,6.85
2023-03-19T23:52:00.000Z,10.95
2023-03-19T23:57:06.529Z,8.35
